Time;durP1;ratioP1;P1;durP2;ratioP2;P2;SDS_P1;SDS_P2;PMS_P1;PMS_P2;Temp;Humidity;BMP_temperature;BMP_pressure;BME280_temperature;BME280_humidity;BME280_pressure;Samples;Min_cycle;Max_cycle;Signal;HPM_P1;HPM_P2
2023/07/29 00:00:07;;;;;;;;;;;;;;;-144.99;100.00;52342.09;5080656;28;19992;-76
2023/07/29 00:02:35;;;;;;;;;;;;;;;-144.99;100.00;52325.81;5086069;28;19960;-76
2023/07/29 00:05:02;;;;;;;;;;;;;;;-144.99;100.00;52264.66;5079124;28;19990;-76
2023/07/29 00:07:29;;;;;;;;;;;;;;;-144.99;100.00;52346.19;5084060;28;19941;-77
2023/07/29 00:09:55;;;;;;;;;;;;;;;-144.99;100.00;52323.75;5075679;28;19982;-76
2023/07/29 00:12:22;;;;;;;;;;;;;;;-144.99;100.00;52317.66;5085915;28;19945;-71
2023/07/29 00:14:48;;;;;;;;;;;;;;;-144.99;100.00;52366.56;5079545;28;19957;-72
2023/07/29 00:17:15;;;;;;;;;;;;;;;-144.99;100.00;52325.81;5076312;28;19977;-72
2023/07/29 00:19:43;;;;;;;;;;;;;;;-144.99;100.00;52325.81;5080629;28;20033;-73
2023/07/29 00:22:09;;;;;;;;;;;;;;;-144.99;100.00;52309.50;5082455;28;20087;-71
2023/07/29 00:24:36;;;;;;;;;;;;;;;-144.99;100.00;52331.91;5085059;28;19954;-71
2023/07/29 00:27:02;;;;;;;;;;;;;;;-144.99;100.00;52323.75;5081306;28;19994;-73
2023/07/29 00:29:29;;;;;;;;;;;;;;;-144.99;100.00;52342.09;5085271;28;20313;-72
2023/07/29 00:31:56;;;;;;;;;;;;;;;-144.99;100.00;52356.38;5085340;28;19958;-72
2023/07/29 00:34:22;;;;;;;;;;;;;;;-144.99;100.00;52321.72;5085250;28;20763;-71
2023/07/29 00:36:50;;;;;;;;;;;;;;;-144.99;100.00;52370.63;5077181;28;20158;-75
2023/07/29 00:39:17;;;;;;;;;;;;;;;-144.99;100.00;52366.56;5085344;28;20412;-74
2023/07/29 00:41:43;;;;;;;;;;;;;;;-144.99;100.00;52358.41;5080766;28;19964;-74
2023/07/29 00:44:10;;;;;;;;;;;;;;;-144.99;100.00;52325.81;5080902;28;19955;-75
2023/07/29 00:46:38;;;;;;;;;;;;;;;-144.99;100.00;52333.94;5083791;28;19966;-75
2023/07/29 00:49:04;;;;;;;;;;;;;;;-144.99;100.00;52305.41;5084495;28;19949;-75
2023/07/29 00:51:31;;;;;;;;;;;;;;;-144.99;100.00;52329.88;5084991;28;19942;-74
2023/07/29 00:53:59;;;;;;;;;;;;;;;-144.99;100.00;52309.50;5084821;28;19956;-73
2023/07/29 00:56:25;;;;;;;;;;;;;;;-144.99;100.00;52325.81;5080557;28;19938;-75
2023/07/29 00:58:58;;;;;;;;;;;;;;;-144.99;100.00;52325.81;5079611;28;19962;-75
2023/07/29 01:01:25;;;;;;;;;;;;;;;-144.99;100.00;52325.81;5111725;28;20011;-75
2023/07/29 01:03:51;;;;;;;;;;;;;;;-144.99;100.00;52350.25;5085805;28;19983;-75
2023/07/29 01:06:24;;;;;;;;;;;;;;;-144.99;100.00;52309.50;5077836;28;19992;-75
2023/07/29 01:08:56;;;;;;;;;;;;;;;-144.99;100.00;52350.25;5082278;28;19928;-74
2023/07/29 01:11:32;;;;;;;;;;;;;;;-144.99;100.00;52287.06;5082125;28;20501;-75
2023/07/29 01:14:02;;;;;;;;;;;;;;;-144.99;100.00;52346.19;5084117;28;19962;-74
2023/07/29 01:16:31;;;;;;;;;;;;;;;-144.99;100.00;52350.25;5073235;28;19939;-74
2023/07/29 01:19:02;;;;;;;;;;;;;;;-144.99;100.00;52350.25;5080745;28;20383;-75
2023/07/29 01:21:29;;;;;;;;;;;;;;;-144.99;100.00;52338.03;5078868;28;20462;-74
2023/07/29 01:24:00;;;;;;;;;;;;;;;-144.99;100.00;52338.03;4733466;28;10000127;-74
2023/07/29 01:26:29;;;;;;;;;;;;;;;-144.99;100.00;52370.63;5087609;28;19965;-75
2023/07/29 01:28:55;;;;;;;;;;;;;;;-144.99;100.00;52317.66;5088578;28;20059;-75
2023/07/29 01:31:28;;;;;;;;;;;;;;;-144.99;100.00;52342.09;5087319;28;20366;-75
2023/07/29 01:33:58;;;;;;;;;;;;;;;-144.99;100.00;52309.50;5076697;28;20003;-75
2023/07/29 01:36:28;;;;;;;;;;;;;;;-144.99;100.00;52321.72;5091396;28;19942;-73
2023/07/29 01:38:55;;;;;;;;;;;;;;;-144.99;100.00;52329.88;5090838;28;20298;-75
2023/07/29 01:41:25;;;;;;;;;;;;;;;-144.99;100.00;52338.03;5090151;28;19973;-75
2023/07/29 01:43:53;;;;;;;;;;;;;;;-144.99;100.00;52305.41;5087454;28;19966;-73
2023/07/29 01:46:19;;;;;;;;;;;;;;;-144.99;100.00;52360.44;5089091;28;19938;-73
2023/07/29 01:48:46;;;;;;;;;;;;;;;-144.99;100.00;52329.88;5090308;28;19940;-71
2023/07/29 01:51:13;;;;;;;;;;;;;;;-144.99;100.00;52358.41;5087409;28;20049;-72
2023/07/29 01:53:39;;;;;;;;;;;;;;;-144.99;100.00;52325.81;5075474;28;19950;-73
2023/07/29 01:56:06;;;;;;;;;;;;;;;-144.99;100.00;52366.56;5084220;28;20185;-72
2023/07/29 01:58:34;;;;;;;;;;;;;;;-144.99;100.00;52350.25;5085498;28;19940;-72
2023/07/29 02:01:01;;;;;;;;;;;;;;;-144.99;100.00;52352.28;5085278;28;19939;-72
2023/07/29 02:03:27;;;;;;;;;;;;;;;-144.99;100.00;52342.09;5086119;28;19981;-72
2023/07/29 02:05:54;;;;;;;;;;;;;;;-144.99;100.00;52289.13;5090444;28;20343;-71
2023/07/29 02:08:21;;;;;;;;;;;;;;;-144.99;100.00;52329.88;5090449;28;20014;-73
2023/07/29 02:10:48;;;;;;;;;;;;;;;-144.99;100.00;52315.59;5082500;28;19946;-73
2023/07/29 02:13:16;;;;;;;;;;;;;;;-144.99;100.00;52305.41;5084726;28;19960;-72
2023/07/29 02:15:44;;;;;;;;;;;;;;;-144.99;100.00;52358.41;5086493;28;19950;-72
2023/07/29 02:18:10;;;;;;;;;;;;;;;-144.99;100.00;52321.72;5084181;28;19924;-72
2023/07/29 02:20:37;;;;;;;;;;;;;;;-144.99;100.00;52327.84;5090264;28;19957;-73
2023/07/29 02:23:03;;;;;;;;;;;;;;;-144.99;100.00;52309.50;5085095;28;19995;-72
2023/07/29 02:25:30;;;;;;;;;;;;;;;-144.99;100.00;52346.19;5089278;28;20461;-73
2023/07/29 02:27:56;;;;;;;;;;;;;;;-144.99;100.00;52317.66;5089746;28;20061;-73
2023/07/29 02:30:23;;;;;;;;;;;;;;;-144.99;100.00;52333.94;5090202;28;19964;-73
2023/07/29 02:32:51;;;;;;;;;;;;;;;-144.99;100.00;52317.66;5085566;28;19948;-72
2023/07/29 02:35:18;;;;;;;;;;;;;;;-144.99;100.00;52329.88;5090104;28;19946;-72
2023/07/29 02:37:44;;;;;;;;;;;;;;;-144.99;100.00;52342.09;5089685;28;19949;-71
2023/07/29 02:40:11;;;;;;;;;;;;;;;-144.99;100.00;52325.81;5089750;28;20583;-71
2023/07/29 02:42:38;;;;;;;;;;;;;;;-144.99;100.00;52342.09;5084885;28;19932;-72
2023/07/29 02:45:09;;;;;;;;;;;;;;;-144.99;100.00;52325.81;5087217;28;19987;-72
2023/07/29 02:47:35;;;;;;;;;;;;;;;-144.99;100.00;52315.59;5087071;28;19924;-72
2023/07/29 02:50:04;;;;;;;;;;;;;;;-144.99;100.00;52338.03;5086812;28;19947;-71
2023/07/29 02:52:31;;;;;;;;;;;;;;;-144.99;100.00;52297.25;5085490;28;19969;-71
2023/07/29 02:54:57;;;;;;;;;;;;;;;-144.99;100.00;52315.59;5087133;28;19967;-73
2023/07/29 02:57:24;;;;;;;;;;;;;;;-144.99;100.00;52346.19;5087634;28;19936;-73
2023/07/29 02:59:50;;;;;;;;;;;;;;;-144.99;100.00;52338.03;5081729;28;20242;-72
2023/07/29 03:02:17;;;;;;;;;;;;;;;-144.99;100.00;52309.50;5088708;28;19985;-73
2023/07/29 03:04:43;;;;;;;;;;;;;;;-144.99;100.00;52297.25;5089580;28;20410;-73
2023/07/29 03:07:11;;;;;;;;;;;;;;;-144.99;100.00;52358.41;5089222;28;20383;-73
2023/07/29 03:09:38;;;;;;;;;;;;;;;-144.99;100.00;52293.19;5088459;28;19936;-73
2023/07/29 03:12:04;;;;;;;;;;;;;;;-144.99;100.00;52329.88;5080068;28;19932;-72
2023/07/29 03:14:32;;;;;;;;;;;;;;;-144.99;100.00;52301.34;5083027;28;19950;-72
2023/07/29 03:16:59;;;;;;;;;;;;;;;-144.99;100.00;52309.50;5088302;28;19936;-73
2023/07/29 03:19:25;;;;;;;;;;;;;;;-144.99;100.00;52329.88;5089634;28;19973;-75
2023/07/29 03:21:52;;;;;;;;;;;;;;;-144.99;100.00;52272.81;5076978;28;20324;-73
2023/07/29 03:24:20;;;;;;;;;;;;;;;-144.99;100.00;52358.41;5086322;28;19957;-72
2023/07/29 03:26:46;;;;;;;;;;;;;;;-144.99;100.00;52297.25;5086700;28;19940;-71
2023/07/29 03:29:13;;;;;;;;;;;;;;;-144.99;100.00;52366.56;5083488;28;19940;-72
2023/07/29 03:31:39;;;;;;;;;;;;;;;-144.99;100.00;52313.56;5084792;28;19961;-72
2023/07/29 03:34:06;;;;;;;;;;;;;;;-144.99;100.00;52303.38;5087916;28;19963;-72
2023/07/29 03:36:33;;;;;;;;;;;;;;;-144.99;100.00;52272.81;5087725;28;19945;-72
2023/07/29 03:39:00;;;;;;;;;;;;;;;-144.99;100.00;52289.13;5080313;28;19946;-72
2023/07/29 03:41:28;;;;;;;;;;;;;;;-144.99;100.00;52338.03;5081177;28;19951;-73
2023/07/29 03:43:54;;;;;;;;;;;;;;;-144.99;100.00;52358.41;5097996;28;19972;-72
2023/07/29 03:46:21;;;;;;;;;;;;;;;-144.99;100.00;52331.91;5102790;28;19936;-71
2023/07/29 03:48:48;;;;;;;;;;;;;;;-144.99;100.00;52325.81;5085847;28;20379;-70
2023/07/29 03:51:14;;;;;;;;;;;;;;;-144.99;100.00;52321.72;5089103;28;19953;-72
2023/07/29 03:53:41;;;;;;;;;;;;;;;-144.99;100.00;52338.03;5085993;28;19962;-71
2023/07/29 03:56:08;;;;;;;;;;;;;;;-144.99;100.00;52323.75;5088757;28;19984;-72
2023/07/29 03:58:35;;;;;;;;;;;;;;;-144.99;100.00;52362.50;5088566;28;19994;-71
2023/07/29 04:01:02;;;;;;;;;;;;;;;-144.99;100.00;52323.75;5082562;28;19964;-73
2023/07/29 04:03:29;;;;;;;;;;;;;;;-144.99;100.00;52338.03;5082376;28;20395;-71
2023/07/29 04:05:55;;;;;;;;;;;;;;;-144.99;100.00;52338.03;5087103;28;19954;-71
2023/07/29 04:08:22;;;;;;;;;;;;;;;-144.99;100.00;52303.38;5081726;28;20390;-71
2023/07/29 04:10:49;;;;;;;;;;;;;;;-144.99;100.00;52305.41;5085359;28;19924;-71
2023/07/29 04:13:15;;;;;;;;;;;;;;;-144.99;100.00;52313.56;5084942;28;20054;-71
2023/07/29 04:15:43;;;;;;;;;;;;;;;-144.99;100.00;52344.16;5088525;28;19942;-71
2023/07/29 04:18:10;;;;;;;;;;;;;;;-144.99;100.00;52297.25;5088377;28;19943;-72
2023/07/29 04:20:36;;;;;;;;;;;;;;;-144.99;100.00;52317.66;5088757;28;19944;-72
2023/07/29 04:23:03;;;;;;;;;;;;;;;-144.99;100.00;52317.66;5083077;28;19974;-73
2023/07/29 04:25:29;;;;;;;;;;;;;;;-144.99;100.00;52342.09;5088591;28;19943;-72
2023/07/29 04:27:57;;;;;;;;;;;;;;;-144.99;100.00;52301.34;5088264;28;19942;-72
2023/07/29 04:30:24;;;;;;;;;;;;;;;-144.99;100.00;52272.81;5082342;28;19935;-74
2023/07/29 04:32:51;;;;;;;;;;;;;;;-144.99;100.00;52305.41;5078212;28;20015;-72
2023/07/29 04:35:18;;;;;;;;;;;;;;;-144.99;100.00;52358.41;5087631;28;20340;-72
2023/07/29 04:37:45;;;;;;;;;;;;;;;-144.99;100.00;52291.16;5087936;28;19947;-72
2023/07/29 04:40:11;;;;;;;;;;;;;;;-144.99;100.00;52333.94;5087476;28;19974;-72
2023/07/29 04:42:38;;;;;;;;;;;;;;;-144.99;100.00;52293.19;5083383;28;20009;-73
2023/07/29 04:45:05;;;;;;;;;;;;;;;-144.99;100.00;52301.34;5087814;28;19986;-74
2023/07/29 04:47:32;;;;;;;;;;;;;;;-144.99;100.00;52293.19;5100034;28;20374;-75
2023/07/29 04:50:00;;;;;;;;;;;;;;;-144.99;100.00;52301.34;5086251;28;20390;-73
2023/07/29 04:52:26;;;;;;;;;;;;;;;-144.99;100.00;52293.19;5085988;28;20016;-73
2023/07/29 04:54:53;;;;;;;;;;;;;;;-144.99;100.00;52338.03;5080001;28;19965;-72
2023/07/29 04:57:19;;;;;;;;;;;;;;;-144.99;100.00;52321.72;5087806;28;19942;-73
2023/07/29 04:59:46;;;;;;;;;;;;;;;-144.99;100.00;52287.06;5087845;28;20081;-73
2023/07/29 05:02:13;;;;;;;;;;;;;;;-144.99;100.00;52356.38;5082705;28;19939;-73
2023/07/29 05:04:39;;;;;;;;;;;;;;;-144.99;100.00;52329.88;5087022;28;20012;-73
2023/07/29 05:07:07;;;;;;;;;;;;;;;-144.99;100.00;52354.34;5091261;28;19932;-72
2023/07/29 05:09:34;;;;;;;;;;;;;;;-144.99;100.00;52309.50;5086673;28;20037;-72
2023/07/29 05:12:01;;;;;;;;;;;;;;;-144.99;100.00;52329.88;5089667;28;20353;-72
2023/07/29 05:14:27;;;;;;;;;;;;;;;-144.99;100.00;52311.53;5083945;28;19950;-73
2023/07/29 05:16:54;;;;;;;;;;;;;;;-144.99;100.00;52293.19;5091049;28;19924;-73
2023/07/29 05:19:20;;;;;;;;;;;;;;;-144.99;100.00;52323.75;5091655;28;19961;-74
2023/07/29 05:21:47;;;;;;;;;;;;;;;-144.99;100.00;52321.72;5086840;28;20029;-74
2023/07/29 05:24:15;;;;;;;;;;;;;;;-144.99;100.00;52270.78;5087808;28;20402;-73
2023/07/29 05:26:41;;;;;;;;;;;;;;;-144.99;100.00;52293.19;5089555;28;19944;-73
2023/07/29 05:29:08;;;;;;;;;;;;;;;-144.99;100.00;52303.38;5085892;28;19980;-73
2023/07/29 05:31:35;;;;;;;;;;;;;;;-144.99;100.00;52289.13;5081456;28;19972;-73
2023/07/29 05:34:01;;;;;;;;;;;;;;;-144.99;100.00;52333.94;5093148;28;19962;-73
2023/07/29 05:36:28;;;;;;;;;;;;;;;-144.99;100.00;52309.50;5092952;28;19939;-74
2023/07/29 05:38:54;;;;;;;;;;;;;;;-144.99;100.00;52321.72;5091904;28;20154;-73
2023/07/29 05:41:22;;;;;;;;;;;;;;;-144.99;100.00;52297.25;5084518;28;19949;-72
2023/07/29 05:43:49;;;;;;;;;;;;;;;-144.99;100.00;52276.88;5088790;28;19963;-73
2023/07/29 05:46:15;;;;;;;;;;;;;;;-144.99;100.00;52309.50;5085995;28;19938;-74
2023/07/29 05:48:42;;;;;;;;;;;;;;;-144.99;100.00;52285.03;5087848;28;19936;-74
2023/07/29 05:51:08;;;;;;;;;;;;;;;-144.99;100.00;52305.41;5083045;28;20044;-74
2023/07/29 05:53:35;;;;;;;;;;;;;;;-144.99;100.00;52358.41;5089576;28;20368;-74
2023/07/29 05:56:01;;;;;;;;;;;;;;;-144.99;100.00;52307.47;5090649;28;19952;-74
2023/07/29 05:58:31;;;;;;;;;;;;;;;-144.99;100.00;52329.88;5093149;28;20350;-75
2023/07/29 06:00:57;;;;;;;;;;;;;;;-144.99;100.00;52295.22;5100262;28;20454;-73
2023/07/29 06:03:24;;;;;;;;;;;;;;;-144.99;100.00;52311.53;5091489;28;19989;-73
2023/07/29 06:05:50;;;;;;;;;;;;;;;-144.99;100.00;52293.19;5094341;28;20444;-74
2023/07/29 06:08:17;;;;;;;;;;;;;;;-144.99;100.00;52287.06;5092696;28;20360;-75
2023/07/29 06:10:43;;;;;;;;;;;;;;;-144.99;100.00;52315.59;5087374;28;19934;-74
2023/07/29 06:13:10;;;;;;;;;;;;;;;-144.99;100.00;52315.59;5091738;28;19965;-74
2023/07/29 06:15:38;;;;;;;;;;;;;;;-144.99;100.00;52301.34;5089484;28;19943;-72
2023/07/29 06:18:04;;;;;;;;;;;;;;;-144.99;100.00;52313.56;5094609;28;20349;-73
2023/07/29 06:20:31;;;;;;;;;;;;;;;-144.99;100.00;52297.25;5092804;28;19934;-74
2023/07/29 06:22:58;;;;;;;;;;;;;;;-144.99;100.00;52293.19;5095647;28;19959;-74
2023/07/29 06:25:24;;;;;;;;;;;;;;;-144.99;100.00;52276.88;5105144;28;19937;-74
2023/07/29 06:27:51;;;;;;;;;;;;;;;-144.99;100.00;52325.81;5094579;28;20026;-74
2023/07/29 06:30:17;;;;;;;;;;;;;;;-144.99;100.00;52287.06;5094736;28;19939;-73
2023/07/29 06:32:45;;;;;;;;;;;;;;;-144.99;100.00;52287.06;5089380;28;20396;-73
2023/07/29 06:35:12;;;;;;;;;;;;;;;-144.99;100.00;52340.06;5086364;28;19962;-73
2023/07/29 06:37:38;;;;;;;;;;;;;;;-144.99;100.00;52289.13;5090190;28;19965;-72
2023/07/29 06:40:06;;;;;;;;;;;;;;;-144.99;100.00;52301.34;5084231;28;19924;-73
2023/07/29 06:42:32;;;;;;;;;;;;;;;-144.99;100.00;52301.34;5083471;28;19963;-73
2023/07/29 06:44:59;;;;;;;;;;;;;;;-144.99;100.00;52289.13;5088424;28;19981;-74
2023/07/29 06:47:25;;;;;;;;;;;;;;;-144.99;100.00;52329.88;5090454;28;19934;-73
2023/07/29 06:49:54;;;;;;;;;;;;;;;-144.99;100.00;52276.88;5086238;28;19957;-72
2023/07/29 06:52:21;;;;;;;;;;;;;;;-144.99;100.00;52280.97;5082887;28;19936;-72
2023/07/29 06:54:47;;;;;;;;;;;;;;;-144.99;100.00;52293.19;5089257;28;19951;-72
2023/07/29 06:57:14;;;;;;;;;;;;;;;-144.99;100.00;52285.03;5089397;28;19942;-71
2023/07/29 06:59:41;;;;;;;;;;;;;;;-144.99;100.00;52268.72;5089535;28;20011;-73
2023/07/29 07:02:07;;;;;;;;;;;;;;;-144.99;100.00;52297.25;5087406;28;19963;-72
2023/07/29 07:04:34;;;;;;;;;;;;;;;-144.99;100.00;52299.31;5089665;28;20009;-72
2023/07/29 07:07:02;;;;;;;;;;;;;;;-144.99;100.00;52297.25;5082599;28;19932;-73
2023/07/29 07:09:29;;;;;;;;;;;;;;;-144.99;100.00;52309.50;5089522;28;19959;-73
2023/07/29 07:11:55;;;;;;;;;;;;;;;-144.99;100.00;52321.72;5081543;28;19988;-73
2023/07/29 07:14:22;;;;;;;;;;;;;;;-144.99;100.00;52309.50;5089293;28;19960;-73
2023/07/29 07:16:48;;;;;;;;;;;;;;;-144.99;100.00;52256.50;5082483;28;19974;-72
2023/07/29 07:19:15;;;;;;;;;;;;;;;-144.99;100.00;52289.13;5081932;28;19955;-74
2023/07/29 07:21:41;;;;;;;;;;;;;;;-144.99;100.00;52305.41;5082022;28;19942;-72
2023/07/29 07:24:09;;;;;;;;;;;;;;;-144.99;100.00;52313.56;5085599;28;20329;-72
2023/07/29 07:26:36;;;;;;;;;;;;;;;-144.99;100.00;52317.66;5084739;28;19937;-72
2023/07/29 07:29:02;;;;;;;;;;;;;;;-144.99;100.00;52323.75;5088044;28;19940;-72
2023/07/29 07:31:29;;;;;;;;;;;;;;;-144.99;100.00;52272.81;5095174;28;19962;-72
2023/07/29 07:33:55;;;;;;;;;;;;;;;-144.99;100.00;52309.50;5087917;28;19954;-73
2023/07/29 07:36:22;;;;;;;;;;;;;;;-144.99;100.00;52313.56;5086687;28;19943;-72
2023/07/29 07:38:48;;;;;;;;;;;;;;;-144.99;100.00;52313.56;5081654;28;19964;-71
2023/07/29 07:41:16;;;;;;;;;;;;;;;-144.99;100.00;52262.63;5089465;28;19942;-72
2023/07/29 07:43:43;;;;;;;;;;;;;;;-144.99;100.00;52311.53;5077514;28;19939;-71
2023/07/29 07:46:09;;;;;;;;;;;;;;;-144.99;100.00;52280.97;5083665;28;19936;-72
2023/07/29 07:48:36;;;;;;;;;;;;;;;-144.99;100.00;52293.19;5084123;28;20354;-72
2023/07/29 07:51:10;;;;;;;;;;;;;;;-144.99;100.00;52256.50;5080224;28;19991;-74
2023/07/29 07:53:37;;;;;;;;;;;;;;;-144.99;100.00;52309.50;5077957;28;20025;-75
2023/07/29 07:56:04;;;;;;;;;;;;;;;-144.99;100.00;52309.50;5082300;28;19951;-74
2023/07/29 07:58:32;;;;;;;;;;;;;;;-144.99;100.00;52285.03;5084642;28;19935;-74
2023/07/29 08:01:01;;;;;;;;;;;;;;;-144.99;100.00;52344.16;5084459;28;20380;-73
2023/07/29 08:03:37;;;;;;;;;;;;;;;-144.99;100.00;52295.22;4695333;28;10000629;-75
2023/07/29 08:06:04;;;;;;;;;;;;;;;-144.99;100.00;52256.50;5077134;28;20389;-74
2023/07/29 08:08:30;;;;;;;;;;;;;;;-144.99;100.00;52272.81;5085821;28;19938;-75
2023/07/29 08:10:57;;;;;;;;;;;;;;;-144.99;100.00;52230.00;5085136;28;19958;-73
2023/07/29 08:13:24;;;;;;;;;;;;;;;-144.99;100.00;52289.13;5085031;28;20678;-72
2023/07/29 08:15:52;;;;;;;;;;;;;;;-144.99;100.00;52276.88;5085856;28;19932;-75
2023/07/29 08:18:18;;;;;;;;;;;;;;;-144.99;100.00;52260.56;5081921;28;20636;-76
2023/07/29 08:20:53;;;;;;;;;;;;;;;-144.99;100.00;52280.97;5085755;28;19965;-75
2023/07/29 08:23:19;;;;;;;;;;;;;;;-144.99;100.00;52244.28;5074930;28;20109;-73
2023/07/29 08:25:46;;;;;;;;;;;;;;;-144.99;100.00;52280.97;5072335;28;19939;-73
2023/07/29 08:28:12;;;;;;;;;;;;;;;-144.99;100.00;52258.53;5082000;28;20023;-75
2023/07/29 08:30:39;;;;;;;;;;;;;;;-144.99;100.00;52289.13;5082464;28;19939;-74
2023/07/29 08:33:07;;;;;;;;;;;;;;;-144.99;100.00;52305.41;5073413;28;19964;-75
2023/07/29 08:35:33;;;;;;;;;;;;;;;-144.99;99.88;52293.19;5089277;28;19975;-75
2023/07/29 08:38:00;;;;;;;;;;;;;;;-144.99;99.50;52262.63;5085795;28;19935;-74
2023/07/29 08:40:29;;;;;;;;;;;;;;;-144.99;98.87;52268.72;5091163;28;20043;-76
2023/07/29 08:42:57;;;;;;;;;;;;;;;-144.99;99.40;52293.19;5089425;28;20011;-74
2023/07/29 08:45:25;;;;;;;;;;;;;;;-144.99;99.45;52264.66;5086854;28;19959;-75
2023/07/29 08:47:55;;;;;;;;;;;;;;;-144.99;99.17;52268.72;5084306;28;20089;-75
2023/07/29 08:50:24;;;;;;;;;;;;;;;-144.99;99.60;52264.66;5087936;28;20330;-76
2023/07/29 08:52:52;;;;;;;;;;;;;;;-144.99;100.00;52232.03;5088595;28;19938;-74
2023/07/29 08:55:19;;;;;;;;;;;;;;;-144.99;100.00;52240.19;5086663;28;20496;-75
2023/07/29 08:57:46;;;;;;;;;;;;;;;-144.99;99.53;52285.03;5082107;28;19943;-75
2023/07/29 09:00:13;;;;;;;;;;;;;;;-144.99;98.08;52264.66;5091361;28;19950;-77
2023/07/29 09:02:40;;;;;;;;;;;;;;;-144.99;97.45;52285.03;5091433;28;19945;-75
2023/07/29 09:05:07;;;;;;;;;;;;;;;-144.99;96.16;52264.66;5089565;28;20818;-74
2023/07/29 09:07:38;;;;;;;;;;;;;;;-144.99;95.84;52270.78;5089680;28;19935;-76
2023/07/29 09:10:04;;;;;;;;;;;;;;;-144.99;94.91;52280.97;5102485;28;19953;-75
2023/07/29 09:12:31;;;;;;;;;;;;;;;-144.99;95.07;52248.34;5109182;28;19964;-76
2023/07/29 09:14:58;;;;;;;;;;;;;;;-144.99;95.67;52248.34;5102682;28;19959;-75
2023/07/29 09:17:26;;;;;;;;;;;;;;;-144.99;95.23;52280.97;5089126;28;19924;-74
2023/07/29 09:19:53;;;;;;;;;;;;;;;-144.99;94.35;52268.72;5087729;28;19936;-74
2023/07/29 09:22:20;;;;;;;;;;;;;;;-144.99;92.66;52238.16;5086861;28;20423;-75
2023/07/29 09:24:48;;;;;;;;;;;;;;;-144.99;91.40;52250.38;5086005;28;20001;-76
2023/07/29 09:27:24;;;;;;;;;;;;;;;-144.99;90.62;52191.28;5081776;28;19928;-76
2023/07/29 09:29:50;;;;;;;;;;;;;;;-144.99;89.69;52236.13;5079180;28;19931;-75
2023/07/29 09:32:21;;;;;;;;;;;;;;;-144.99;88.09;52203.50;5087709;28;19942;-75
2023/07/29 09:34:47;;;;;;;;;;;;;;;-144.99;87.76;52187.19;5075396;28;19986;-75
2023/07/29 09:37:17;;;;;;;;;;;;;;;-144.99;85.44;52232.03;5089268;28;19928;-76
2023/07/29 09:39:45;;;;;;;;;;;;;;;-144.99;82.79;52219.81;5078920;28;20018;-72
2023/07/29 09:42:16;;;;;;;;;;;;;;;-144.99;82.34;52227.97;5076860;28;19984;-74
2023/07/29 09:44:43;;;;;;;;;;;;;;;-144.99;80.61;52223.88;5079662;28;19971;-74
2023/07/29 09:47:10;;;;;;;;;;;;;;;-144.99;80.63;52240.19;5075220;28;19942;-74
2023/07/29 09:49:37;;;;;;;;;;;;;;;-144.99;80.92;52244.28;5081316;28;20001;-73
2023/07/29 09:52:05;;;;;;;;;;;;;;;-144.99;80.24;52246.31;5078238;28;19963;-74
2023/07/29 09:54:31;;;;;;;;;;;;;;;-144.99;78.62;52252.44;5087001;28;20442;-76
2023/07/29 09:56:58;;;;;;;;;;;;;;;-144.99;79.49;52248.34;5082663;28;20365;-75
2023/07/29 09:59:26;;;;;;;;;;;;;;;-144.99;79.22;52199.44;5085750;28;20111;-74
2023/07/29 10:01:53;;;;;;;;;;;;;;;-144.99;77.41;52211.66;5081524;28;19928;-75
2023/07/29 10:04:19;;;;;;;;;;;;;;;-144.99;74.17;52183.13;5084111;28;20618;-75
2023/07/29 10:06:46;;;;;;;;;;;;;;;-144.99;73.06;52244.28;5084033;28;19928;-76
2023/07/29 10:09:14;;;;;;;;;;;;;;;-144.99;72.89;52232.03;5082106;28;20389;-75
2023/07/29 10:11:41;;;;;;;;;;;;;;;-144.99;72.63;52223.88;5084822;28;19949;-76
2023/07/29 10:14:08;;;;;;;;;;;;;;;-144.99;72.12;52183.13;5085878;28;19935;-75
2023/07/29 10:16:37;;;;;;;;;;;;;;;-144.99;70.08;52195.34;5089561;28;19954;-75
2023/07/29 10:19:05;;;;;;;;;;;;;;;-144.99;70.29;52199.44;5088296;28;19943;-76
2023/07/29 10:21:32;;;;;;;;;;;;;;;-144.99;70.28;52179.06;5091969;28;19955;-76
2023/07/29 10:24:00;;;;;;;;;;;;;;;-144.99;70.43;52199.44;5083058;28;19925;-77
2023/07/29 10:26:29;;;;;;;;;;;;;;;-144.99;70.20;52223.88;5087103;28;19942;-77
2023/07/29 10:29:00;;;;;;;;;;;;;;;-144.99;70.67;52187.19;5092787;28;19927;-76
2023/07/29 10:31:30;;;;;;;;;;;;;;;-144.99;71.32;52191.28;5080749;28;19935;-77
2023/07/29 10:33:58;;;;;;;;;;;;;;;-144.99;70.23;52207.59;5078589;28;20471;-79
2023/07/29 10:36:25;;;;;;;;;;;;;;;-144.99;69.97;52170.91;5083256;28;19939;-75
2023/07/29 10:38:52;;;;;;;;;;;;;;;-144.99;69.61;52207.59;5080982;28;19947;-76
2023/07/29 10:41:18;;;;;;;;;;;;;;;-144.99;70.60;52207.59;5085609;28;19932;-77
2023/07/29 10:43:45;;;;;;;;;;;;;;;-144.99;71.58;52240.19;5086911;28;19963;-77
2023/07/29 10:46:18;;;;;;;;;;;;;;;-144.99;72.78;52244.28;5084981;28;19924;-78
2023/07/29 10:48:45;;;;;;;;;;;;;;;-144.99;72.56;52264.66;5083064;28;19959;-76
2023/07/29 10:51:29;;;;;;;;;;;;;;;-144.99;72.78;52236.13;5084004;28;19935;-75
2023/07/29 10:53:56;;;;;;;;;;;;;;;-144.99;72.63;52199.44;5080883;28;19951;-75
2023/07/29 10:56:29;;;;;;;;;;;;;;;-144.99;72.53;52207.59;5081368;28;19934;-77
2023/07/29 10:58:57;;;;;;;;;;;;;;;-144.99;72.06;52187.19;5087803;28;20378;-76
2023/07/29 11:01:28;;;;;;;;;;;;;;;-144.99;71.32;52130.13;5077732;28;20367;-79
2023/07/29 11:04:13;;;;;;;;;;;;;;;-144.99;70.64;52105.69;5082210;28;19960;-78
2023/07/29 11:06:54;;;;;;;;;;;;;;;-144.99;70.51;52150.53;5077100;28;19989;-77
2023/07/29 11:09:53;;;;;;;;;;;;;;;-144.99;69.75;52113.84;5073625;28;19929;-77
2023/07/29 11:12:35;;;;;;;;;;;;;;;-144.99;69.16;52101.59;5081668;28;19928;-78
2023/07/29 11:15:03;;;;;;;;;;;;;;;-144.99;68.24;52077.16;5089101;28;19939;-79
2023/07/29 11:17:32;;;;;;;;;;;;;;;-144.99;68.55;52179.06;5088261;28;20019;-79
2023/07/29 11:20:01;;;;;;;;;;;;;;;-144.99;69.09;52134.22;5085961;28;19932;-77
2023/07/29 11:22:27;;;;;;;;;;;;;;;-144.99;68.02;52071.03;5082531;28;19928;-77
2023/07/29 11:24:55;;;;;;;;;;;;;;;-144.99;67.81;52134.22;5087832;28;19960;-78
2023/07/29 11:27:22;;;;;;;;;;;;;;;-144.99;67.29;52105.69;5088558;28;20024;-77
2023/07/29 11:29:49;;;;;;;;;;;;;;;-144.99;67.32;52146.44;5087674;28;19931;-78
2023/07/29 11:32:16;;;;;;;;;;;;;;;-144.99;66.75;52081.22;5079172;28;19939;-78
2023/07/29 11:34:43;;;;;;;;;;;;;;;-144.99;66.59;52158.66;5090233;28;19963;-78
2023/07/29 11:37:11;;;;;;;;;;;;;;;-144.99;66.81;52166.81;5087526;28;19937;-76
2023/07/29 11:39:40;;;;;;;;;;;;;;;-144.99;68.41;52209.63;5085915;28;20011;-76
2023/07/29 11:42:11;;;;;;;;;;;;;;;-144.99;69.41;52232.03;5076659;28;20039;-79
2023/07/29 11:44:38;;;;;;;;;;;;;;;-144.99;69.57;52256.50;5087162;28;19928;-77
2023/07/29 11:47:07;;;;;;;;;;;;;;;-144.99;70.54;52252.44;5081751;28;19924;-76
2023/07/29 11:49:34;;;;;;;;;;;;;;;-144.99;71.34;52309.50;5085310;28;20399;-76
2023/07/29 11:52:01;;;;;;;;;;;;;;;-144.99;71.43;52285.03;5085152;28;19935;-77
2023/07/29 11:54:27;;;;;;;;;;;;;;;-144.99;71.78;52297.25;5091041;28;19931;-75
2023/07/29 11:56:54;;;;;;;;;;;;;;;-144.99;72.00;52252.44;5101892;28;19931;-79
2023/07/29 11:59:22;;;;;;;;;;;;;;;-144.99;71.90;52264.66;5116106;28;19945;-77
2023/07/29 12:01:48;;;;;;;;;;;;;;;-144.99;72.08;52252.44;5090521;28;19955;-76
2023/07/29 12:04:15;;;;;;;;;;;;;;;-144.99;72.15;52232.03;5085219;28;19962;-75
2023/07/29 12:06:42;;;;;;;;;;;;;;;-144.99;72.09;52179.06;5083461;28;19955;-78
2023/07/29 12:09:10;;;;;;;;;;;;;;;-144.99;71.66;52219.81;5092852;28;19924;-77
2023/07/29 12:11:37;;;;;;;;;;;;;;;-144.99;71.90;52266.69;5085753;28;19954;-75
2023/07/29 12:14:04;;;;;;;;;;;;;;;-144.99;71.51;52260.56;5080325;28;19939;-78
2023/07/29 12:16:34;;;;;;;;;;;;;;;-144.99;71.01;52256.50;5084103;28;19940;-77
2023/07/29 12:19:01;;;;;;;;;;;;;;;-144.99;71.47;52260.56;5087828;28;20465;-76
2023/07/29 12:21:30;;;;;;;;;;;;;;;-144.99;71.55;52240.19;5081449;28;20449;-77